<?xml version="1.0" encoding="UTF-8"?><gpx creator="Wikiloc - http://www.wikiloc.com" version="1.1" xmlns="http://www.topografix.com/GPX/1/1" xmlns:xsi="http://www.w3.org/2001/XMLSchema-instance" xsi:schemaLocation="http://www.topografix.com/GPX/1/1 http://www.topografix.com/GPX/1/1/gpx.xsd"><wpt lat="39.136666" lon="-6.819315"><ele>317.0</ele><time>2015-07-23T10:40:26Z</time><name>Fuente de la Liebre</name><cmt></cmt><desc></desc></wpt><wpt lat="39.134119" lon="-6.841275"><ele>258.0</ele><time>2015-07-23T10:41:48Z</time><name>Horno de cal</name><cmt></cmt><desc></desc></wpt><wpt lat="39.135069" lon="-6.838652"><ele>280.0</ele><time>2015-07-23T10:42:20Z</time><name>Horno de cal</name><cmt></cmt><desc></desc></wpt><wpt lat="39.139592" lon="-6.777480"><ele>314.0</ele><time>2015-07-23T10:42:43Z</time><name>Cantera de pizarra</name><cmt></cmt><desc></desc></wpt><wpt lat="39.132615" lon="-6.844922"><ele>245.0</ele><time>2015-07-23T10:44:16Z</time><name>Villar del Rey</name><cmt></cmt><desc></desc></wpt><wpt lat="39.122948" lon="-6.834301"><ele>293.0</ele><time>2015-07-23T11:18:36Z</time><name>Dolmen de Peña Incada</name><cmt></cmt><desc></desc></wpt><trk><name>PR-BA 103 'De la Cal a la Pizarra' (Villar del Rey)</name><cmt></cmt><desc></desc><trkseg><trkpt lat="39.132597" lon="-6.844960"><ele>244.4</ele><time>2015-01-01T10:00:40Z</time></trkpt><trkpt lat="39.132970" lon="-6.845790"><ele>245.5</ele><time>2015-01-01T10:01:20Z</time></trkpt><trkpt lat="39.132491" lon="-6.846132"><ele>246.0</ele><time>2015-01-01T10:02:00Z</time></trkpt><trkpt lat="39.131984" lon="-6.846376"><ele>244.4</ele><time>2015-01-01T10:02:40Z</time></trkpt><trkpt lat="39.131636" lon="-6.845817"><ele>242.9</ele><time>2015-01-01T10:03:20Z</time></trkpt><trkpt lat="39.131349" lon="-6.845328"><ele>244.0</ele><time>2015-01-01T10:04:00Z</time></trkpt><trkpt lat="39.131445" lon="-6.845030"><ele>244.7</ele><time>2015-01-01T10:04:40Z</time></trkpt><trkpt lat="39.131547" lon="-6.844422"><ele>245.4</ele><time>2015-01-01T10:05:20Z</time></trkpt><trkpt lat="39.131871" lon="-6.844277"><ele>245.0</ele><time>2015-01-01T10:06:00Z</time></trkpt><trkpt lat="39.131916" lon="-6.843810"><ele>247.4</ele><time>2015-01-01T10:06:41Z</time></trkpt><trkpt lat="39.132027" lon="-6.843607"><ele>248.3</ele><time>2015-01-01T10:07:21Z</time></trkpt><trkpt lat="39.132712" lon="-6.843473"><ele>249.9</ele><time>2015-01-01T10:08:01Z</time></trkpt><trkpt lat="39.132942" lon="-6.843243"><ele>250.7</ele><time>2015-01-01T10:08:41Z</time></trkpt><trkpt lat="39.133051" lon="-6.842696"><ele>251.3</ele><time>2015-01-01T10:09:21Z</time></trkpt><trkpt lat="39.133266" lon="-6.842377"><ele>253.2</ele><time>2015-01-01T10:10:01Z</time></trkpt><trkpt lat="39.133605" lon="-6.842066"><ele>255.5</ele><time>2015-01-01T10:10:41Z</time></trkpt><trkpt lat="39.133800" lon="-6.841760"><ele>256.9</ele><time>2015-01-01T10:11:21Z</time></trkpt><trkpt lat="39.134110" lon="-6.841487"><ele>257.5</ele><time>2015-01-01T10:12:01Z</time></trkpt><trkpt lat="39.134240" lon="-6.841340"><ele>258.4</ele><time>2015-01-01T10:12:41Z</time></trkpt><trkpt lat="39.134399" lon="-6.841050"><ele>259.2</ele><time>2015-01-01T10:13:22Z</time></trkpt><trkpt lat="39.134490" lon="-6.840820"><ele>260.1</ele><time>2015-01-01T10:14:02Z</time></trkpt><trkpt lat="39.134640" lon="-6.840480"><ele>263.4</ele><time>2015-01-01T10:14:42Z</time></trkpt><trkpt lat="39.134760" lon="-6.840240"><ele>263.9</ele><time>2015-01-01T10:15:22Z</time></trkpt><trkpt lat="39.134830" lon="-6.839890"><ele>265.8</ele><time>2015-01-01T10:16:02Z</time></trkpt><trkpt lat="39.134910" lon="-6.839550"><ele>270.0</ele><time>2015-01-01T10:16:42Z</time></trkpt><trkpt lat="39.135050" lon="-6.839250"><ele>274.2</ele><time>2015-01-01T10:17:22Z</time></trkpt><trkpt lat="39.135088" lon="-6.838822"><ele>279.4</ele><time>2015-01-01T10:18:02Z</time></trkpt><trkpt lat="39.135243" lon="-6.838699"><ele>277.5</ele><time>2015-01-01T10:18:42Z</time></trkpt><trkpt lat="39.135369" lon="-6.838559"><ele>274.8</ele><time>2015-01-01T10:19:22Z</time></trkpt><trkpt lat="39.135529" lon="-6.838311"><ele>269.6</ele><time>2015-01-01T10:20:03Z</time></trkpt><trkpt lat="39.135740" lon="-6.837850"><ele>268.7</ele><time>2015-01-01T10:20:43Z</time></trkpt><trkpt lat="39.135770" lon="-6.837330"><ele>270.2</ele><time>2015-01-01T10:21:23Z</time></trkpt><trkpt lat="39.135800" lon="-6.836800"><ele>270.8</ele><time>2015-01-01T10:22:03Z</time></trkpt><trkpt lat="39.135830" lon="-6.836660"><ele>271.0</ele><time>2015-01-01T10:22:43Z</time></trkpt><trkpt lat="39.135920" lon="-6.836470"><ele>273.8</ele><time>2015-01-01T10:23:23Z</time></trkpt><trkpt lat="39.136090" lon="-6.836290"><ele>277.4</ele><time>2015-01-01T10:24:03Z</time></trkpt><trkpt lat="39.136300" lon="-6.836130"><ele>282.3</ele><time>2015-01-01T10:24:43Z</time></trkpt><trkpt lat="39.136440" lon="-6.835970"><ele>285.8</ele><time>2015-01-01T10:25:23Z</time></trkpt><trkpt lat="39.136500" lon="-6.835810"><ele>287.7</ele><time>2015-01-01T10:26:03Z</time></trkpt><trkpt lat="39.136510" lon="-6.835620"><ele>288.9</ele><time>2015-01-01T10:26:44Z</time></trkpt><trkpt lat="39.136555" lon="-6.835353"><ele>292.0</ele><time>2015-01-01T10:27:24Z</time></trkpt><trkpt lat="39.136602" lon="-6.835236"><ele>293.7</ele><time>2015-01-01T10:28:04Z</time></trkpt><trkpt lat="39.136610" lon="-6.835160"><ele>294.6</ele><time>2015-01-01T10:28:44Z</time></trkpt><trkpt lat="39.136640" lon="-6.835070"><ele>295.9</ele><time>2015-01-01T10:29:24Z</time></trkpt><trkpt lat="39.136700" lon="-6.834970"><ele>297.3</ele><time>2015-01-01T10:30:04Z</time></trkpt><trkpt lat="39.136810" lon="-6.834800"><ele>298.4</ele><time>2015-01-01T10:30:44Z</time></trkpt><trkpt lat="39.136850" lon="-6.834790"><ele>298.6</ele><time>2015-01-01T10:31:24Z</time></trkpt><trkpt lat="39.136900" lon="-6.834750"><ele>298.8</ele><time>2015-01-01T10:32:04Z</time></trkpt><trkpt lat="39.136910" lon="-6.834440"><ele>299.0</ele><time>2015-01-01T10:32:44Z</time></trkpt><trkpt lat="39.136920" lon="-6.834160"><ele>299.0</ele><time>2015-01-01T10:33:25Z</time></trkpt><trkpt lat="39.136940" lon="-6.833920"><ele>299.9</ele><time>2015-01-01T10:34:05Z</time></trkpt><trkpt lat="39.136950" lon="-6.833800"><ele>300.3</ele><time>2015-01-01T10:34:45Z</time></trkpt><trkpt lat="39.136910" lon="-6.833600"><ele>301.2</ele><time>2015-01-01T10:35:25Z</time></trkpt><trkpt lat="39.136900" lon="-6.833360"><ele>303.0</ele><time>2015-01-01T10:36:05Z</time></trkpt><trkpt lat="39.136870" lon="-6.832910"><ele>305.3</ele><time>2015-01-01T10:36:45Z</time></trkpt><trkpt lat="39.136840" lon="-6.832700"><ele>306.7</ele><time>2015-01-01T10:37:25Z</time></trkpt><trkpt lat="39.136810" lon="-6.832240"><ele>308.4</ele><time>2015-01-01T10:38:05Z</time></trkpt><trkpt lat="39.136780" lon="-6.831920"><ele>308.7</ele><time>2015-01-01T10:38:45Z</time></trkpt><trkpt lat="39.136754" lon="-6.831749"><ele>309.4</ele><time>2015-01-01T10:39:25Z</time></trkpt><trkpt lat="39.136735" lon="-6.831593"><ele>309.8</ele><time>2015-01-01T10:40:06Z</time></trkpt><trkpt lat="39.136730" lon="-6.831226"><ele>309.5</ele><time>2015-01-01T10:40:46Z</time></trkpt><trkpt lat="39.136750" lon="-6.830770"><ele>309.2</ele><time>2015-01-01T10:41:26Z</time></trkpt><trkpt lat="39.136821" lon="-6.830422"><ele>311.0</ele><time>2015-01-01T10:42:06Z</time></trkpt><trkpt lat="39.136935" lon="-6.830098"><ele>313.3</ele><time>2015-01-01T10:42:46Z</time></trkpt><trkpt lat="39.137008" lon="-6.829659"><ele>314.9</ele><time>2015-01-01T10:43:26Z</time></trkpt><trkpt lat="39.137096" lon="-6.829222"><ele>316.9</ele><time>2015-01-01T10:44:06Z</time></trkpt><trkpt lat="39.137153" lon="-6.829001"><ele>317.8</ele><time>2015-01-01T10:44:46Z</time></trkpt><trkpt lat="39.137180" lon="-6.828720"><ele>318.9</ele><time>2015-01-01T10:45:26Z</time></trkpt><trkpt lat="39.137220" lon="-6.828220"><ele>320.4</ele><time>2015-01-01T10:46:06Z</time></trkpt><trkpt lat="39.137271" lon="-6.827597"><ele>322.6</ele><time>2015-01-01T10:46:47Z</time></trkpt><trkpt lat="39.137349" lon="-6.826846"><ele>326.4</ele><time>2015-01-01T10:47:27Z</time></trkpt><trkpt lat="39.137330" lon="-6.826480"><ele>327.3</ele><time>2015-01-01T10:48:07Z</time></trkpt><trkpt lat="39.137370" lon="-6.826010"><ele>327.0</ele><time>2015-01-01T10:48:47Z</time></trkpt><trkpt lat="39.137364" lon="-6.825801"><ele>327.1</ele><time>2015-01-01T10:49:27Z</time></trkpt><trkpt lat="39.137360" lon="-6.825620"><ele>327.8</ele><time>2015-01-01T10:50:07Z</time></trkpt><trkpt lat="39.137340" lon="-6.825400"><ele>329.1</ele><time>2015-01-01T10:50:47Z</time></trkpt><trkpt lat="39.137267" lon="-6.824826"><ele>331.9</ele><time>2015-01-01T10:51:27Z</time></trkpt><trkpt lat="39.137250" lon="-6.824400"><ele>333.2</ele><time>2015-01-01T10:52:07Z</time></trkpt><trkpt lat="39.137250" lon="-6.824180"><ele>334.0</ele><time>2015-01-01T10:52:47Z</time></trkpt><trkpt lat="39.137250" lon="-6.823700"><ele>333.3</ele><time>2015-01-01T10:53:28Z</time></trkpt><trkpt lat="39.137220" lon="-6.823410"><ele>332.3</ele><time>2015-01-01T10:54:08Z</time></trkpt><trkpt lat="39.137142" lon="-6.822962"><ele>330.8</ele><time>2015-01-01T10:54:48Z</time></trkpt><trkpt lat="39.136963" lon="-6.822424"><ele>327.7</ele><time>2015-01-01T10:55:28Z</time></trkpt><trkpt lat="39.137046" lon="-6.822158"><ele>326.4</ele><time>2015-01-01T10:56:08Z</time></trkpt><trkpt lat="39.137030" lon="-6.821760"><ele>323.9</ele><time>2015-01-01T10:56:48Z</time></trkpt><trkpt lat="39.136980" lon="-6.821510"><ele>322.5</ele><time>2015-01-01T10:57:28Z</time></trkpt><trkpt lat="39.136759" lon="-6.820949"><ele>323.1</ele><time>2015-01-01T10:58:08Z</time></trkpt><trkpt lat="39.136663" lon="-6.820518"><ele>321.9</ele><time>2015-01-01T10:58:48Z</time></trkpt><trkpt lat="39.136670" lon="-6.820009"><ele>320.0</ele><time>2015-01-01T10:59:28Z</time></trkpt><trkpt lat="39.136640" lon="-6.819570"><ele>318.7</ele><time>2015-01-01T11:00:09Z</time></trkpt><trkpt lat="39.136582" lon="-6.819161"><ele>317.3</ele><time>2015-01-01T11:00:49Z</time></trkpt><trkpt lat="39.136470" lon="-6.818858"><ele>316.6</ele><time>2015-01-01T11:01:29Z</time></trkpt><trkpt lat="39.136290" lon="-6.818070"><ele>311.2</ele><time>2015-01-01T11:02:09Z</time></trkpt><trkpt lat="39.136110" lon="-6.817530"><ele>312.9</ele><time>2015-01-01T11:02:49Z</time></trkpt><trkpt lat="39.136007" lon="-6.817334"><ele>311.6</ele><time>2015-01-01T11:03:29Z</time></trkpt><trkpt lat="39.135971" lon="-6.817208"><ele>310.3</ele><time>2015-01-01T11:04:09Z</time></trkpt><trkpt lat="39.135620" lon="-6.816760"><ele>306.7</ele><time>2015-01-01T11:04:49Z</time></trkpt><trkpt lat="39.135535" lon="-6.816556"><ele>306.2</ele><time>2015-01-01T11:05:29Z</time></trkpt><trkpt lat="39.135573" lon="-6.816295"><ele>306.0</ele><time>2015-01-01T11:06:09Z</time></trkpt><trkpt lat="39.135746" lon="-6.816173"><ele>305.8</ele><time>2015-01-01T11:06:50Z</time></trkpt><trkpt lat="39.135796" lon="-6.816039"><ele>306.0</ele><time>2015-01-01T11:07:30Z</time></trkpt><trkpt lat="39.135781" lon="-6.815857"><ele>305.8</ele><time>2015-01-01T11:08:10Z</time></trkpt><trkpt lat="39.135755" lon="-6.815682"><ele>305.4</ele><time>2015-01-01T11:08:50Z</time></trkpt><trkpt lat="39.135531" lon="-6.815515"><ele>302.8</ele><time>2015-01-01T11:09:30Z</time></trkpt><trkpt lat="39.135243" lon="-6.815261"><ele>301.2</ele><time>2015-01-01T11:10:10Z</time></trkpt><trkpt lat="39.134943" lon="-6.814758"><ele>301.3</ele><time>2015-01-01T11:10:50Z</time></trkpt><trkpt lat="39.134578" lon="-6.814182"><ele>302.6</ele><time>2015-01-01T11:11:30Z</time></trkpt><trkpt lat="39.134231" lon="-6.813698"><ele>302.9</ele><time>2015-01-01T11:12:10Z</time></trkpt><trkpt lat="39.133862" lon="-6.813235"><ele>301.0</ele><time>2015-01-01T11:12:50Z</time></trkpt><trkpt lat="39.133586" lon="-6.812926"><ele>300.7</ele><time>2015-01-01T11:13:31Z</time></trkpt><trkpt lat="39.133236" lon="-6.812630"><ele>297.9</ele><time>2015-01-01T11:14:11Z</time></trkpt><trkpt lat="39.133062" lon="-6.812612"><ele>297.6</ele><time>2015-01-01T11:14:51Z</time></trkpt><trkpt lat="39.132856" lon="-6.812651"><ele>297.4</ele><time>2015-01-01T11:15:31Z</time></trkpt><trkpt lat="39.132686" lon="-6.812722"><ele>297.2</ele><time>2015-01-01T11:16:11Z</time></trkpt><trkpt lat="39.132509" lon="-6.812904"><ele>298.0</ele><time>2015-01-01T11:16:51Z</time></trkpt><trkpt lat="39.132061" lon="-6.813777"><ele>296.6</ele><time>2015-01-01T11:17:31Z</time></trkpt><trkpt lat="39.131921" lon="-6.814076"><ele>297.1</ele><time>2015-01-01T11:18:11Z</time></trkpt><trkpt lat="39.131822" lon="-6.814001"><ele>295.7</ele><time>2015-01-01T11:18:51Z</time></trkpt><trkpt lat="39.131783" lon="-6.813922"><ele>295.0</ele><time>2015-01-01T11:19:31Z</time></trkpt><trkpt lat="39.131771" lon="-6.813795"><ele>294.8</ele><time>2015-01-01T11:20:12Z</time></trkpt><trkpt lat="39.131771" lon="-6.813647"><ele>295.0</ele><time>2015-01-01T11:20:52Z</time></trkpt><trkpt lat="39.131790" lon="-6.813500"><ele>294.6</ele><time>2015-01-01T11:21:32Z</time></trkpt><trkpt lat="39.131820" lon="-6.813420"><ele>294.4</ele><time>2015-01-01T11:22:12Z</time></trkpt><trkpt lat="39.132040" lon="-6.812890"><ele>293.5</ele><time>2015-01-01T11:22:52Z</time></trkpt><trkpt lat="39.132223" lon="-6.812552"><ele>291.6</ele><time>2015-01-01T11:23:32Z</time></trkpt><trkpt lat="39.132342" lon="-6.812392"><ele>291.5</ele><time>2015-01-01T11:24:12Z</time></trkpt><trkpt lat="39.132732" lon="-6.812064"><ele>292.6</ele><time>2015-01-01T11:24:52Z</time></trkpt><trkpt lat="39.132950" lon="-6.811840"><ele>292.0</ele><time>2015-01-01T11:25:32Z</time></trkpt><trkpt lat="39.133190" lon="-6.811504"><ele>291.5</ele><time>2015-01-01T11:26:12Z</time></trkpt><trkpt lat="39.133301" lon="-6.811168"><ele>292.9</ele><time>2015-01-01T11:26:53Z</time></trkpt><trkpt lat="39.133356" lon="-6.810752"><ele>295.2</ele><time>2015-01-01T11:27:33Z</time></trkpt><trkpt lat="39.133436" lon="-6.810319"><ele>297.9</ele><time>2015-01-01T11:28:13Z</time></trkpt><trkpt lat="39.133526" lon="-6.809851"><ele>298.9</ele><time>2015-01-01T11:28:53Z</time></trkpt><trkpt lat="39.133619" lon="-6.809492"><ele>297.1</ele><time>2015-01-01T11:29:33Z</time></trkpt><trkpt lat="39.133779" lon="-6.809293"><ele>297.8</ele><time>2015-01-01T11:30:13Z</time></trkpt><trkpt lat="39.134358" lon="-6.808922"><ele>302.0</ele><time>2015-01-01T11:30:53Z</time></trkpt><trkpt lat="39.134738" lon="-6.808755"><ele>301.6</ele><time>2015-01-01T11:31:33Z</time></trkpt><trkpt lat="39.135046" lon="-6.808626"><ele>305.0</ele><time>2015-01-01T11:32:13Z</time></trkpt><trkpt lat="39.135806" lon="-6.808559"><ele>307.4</ele><time>2015-01-01T11:32:53Z</time></trkpt><trkpt lat="39.136186" lon="-6.808524"><ele>305.7</ele><time>2015-01-01T11:33:34Z</time></trkpt><trkpt lat="39.136502" lon="-6.808451"><ele>307.2</ele><time>2015-01-01T11:34:14Z</time></trkpt><trkpt lat="39.136741" lon="-6.808342"><ele>309.5</ele><time>2015-01-01T11:34:54Z</time></trkpt><trkpt lat="39.136943" lon="-6.808139"><ele>311.7</ele><time>2015-01-01T11:35:34Z</time></trkpt><trkpt lat="39.137140" lon="-6.807841"><ele>314.2</ele><time>2015-01-01T11:36:14Z</time></trkpt><trkpt lat="39.137300" lon="-6.807524"><ele>317.2</ele><time>2015-01-01T11:36:54Z</time></trkpt><trkpt lat="39.137457" lon="-6.807247"><ele>318.1</ele><time>2015-01-01T11:37:34Z</time></trkpt><trkpt lat="39.137731" lon="-6.806970"><ele>317.5</ele><time>2015-01-01T11:38:14Z</time></trkpt><trkpt lat="39.138109" lon="-6.806660"><ele>317.9</ele><time>2015-01-01T11:38:54Z</time></trkpt><trkpt lat="39.138370" lon="-6.806370"><ele>318.1</ele><time>2015-01-01T11:39:34Z</time></trkpt><trkpt lat="39.138704" lon="-6.805976"><ele>319.0</ele><time>2015-01-01T11:40:15Z</time></trkpt><trkpt lat="39.138990" lon="-6.805403"><ele>320.4</ele><time>2015-01-01T11:40:55Z</time></trkpt><trkpt lat="39.139220" lon="-6.804922"><ele>322.7</ele><time>2015-01-01T11:41:35Z</time></trkpt><trkpt lat="39.139349" lon="-6.804597"><ele>323.1</ele><time>2015-01-01T11:42:15Z</time></trkpt><trkpt lat="39.139462" lon="-6.804116"><ele>328.5</ele><time>2015-01-01T11:42:55Z</time></trkpt><trkpt lat="39.139535" lon="-6.803700"><ele>330.5</ele><time>2015-01-01T11:43:35Z</time></trkpt><trkpt lat="39.139592" lon="-6.803256"><ele>333.8</ele><time>2015-01-01T11:44:15Z</time></trkpt><trkpt lat="39.139606" lon="-6.802561"><ele>337.7</ele><time>2015-01-01T11:44:55Z</time></trkpt><trkpt lat="39.139632" lon="-6.802037"><ele>338.9</ele><time>2015-01-01T11:45:35Z</time></trkpt><trkpt lat="39.139664" lon="-6.801354"><ele>337.0</ele><time>2015-01-01T11:46:15Z</time></trkpt><trkpt lat="39.139653" lon="-6.800787"><ele>333.1</ele><time>2015-01-01T11:46:56Z</time></trkpt><trkpt lat="39.139421" lon="-6.800042"><ele>329.4</ele><time>2015-01-01T11:47:36Z</time></trkpt><trkpt lat="39.139311" lon="-6.799458"><ele>328.5</ele><time>2015-01-01T11:48:16Z</time></trkpt><trkpt lat="39.139195" lon="-6.798837"><ele>326.7</ele><time>2015-01-01T11:48:56Z</time></trkpt><trkpt lat="39.139101" lon="-6.798380"><ele>325.0</ele><time>2015-01-01T11:49:36Z</time></trkpt><trkpt lat="39.138878" lon="-6.797768"><ele>322.1</ele><time>2015-01-01T11:50:16Z</time></trkpt><trkpt lat="39.138748" lon="-6.797327"><ele>323.0</ele><time>2015-01-01T11:50:56Z</time></trkpt><trkpt lat="39.138676" lon="-6.796739"><ele>321.1</ele><time>2015-01-01T11:51:36Z</time></trkpt><trkpt lat="39.138595" lon="-6.796279"><ele>318.7</ele><time>2015-01-01T11:52:16Z</time></trkpt><trkpt lat="39.138549" lon="-6.795152"><ele>316.4</ele><time>2015-01-01T11:52:56Z</time></trkpt><trkpt lat="39.138525" lon="-6.794971"><ele>316.3</ele><time>2015-01-01T11:53:37Z</time></trkpt><trkpt lat="39.138450" lon="-6.794681"><ele>314.9</ele><time>2015-01-01T11:54:17Z</time></trkpt><trkpt lat="39.138359" lon="-6.794389"><ele>314.3</ele><time>2015-01-01T11:54:57Z</time></trkpt><trkpt lat="39.138215" lon="-6.793916"><ele>314.6</ele><time>2015-01-01T11:55:37Z</time></trkpt><trkpt lat="39.138160" lon="-6.793520"><ele>315.2</ele><time>2015-01-01T11:56:17Z</time></trkpt><trkpt lat="39.138062" lon="-6.792773"><ele>315.1</ele><time>2015-01-01T11:56:57Z</time></trkpt><trkpt lat="39.138010" lon="-6.792280"><ele>316.6</ele><time>2015-01-01T11:57:37Z</time></trkpt><trkpt lat="39.137880" lon="-6.791720"><ele>317.9</ele><time>2015-01-01T11:58:17Z</time></trkpt><trkpt lat="39.137805" lon="-6.791202"><ele>318.1</ele><time>2015-01-01T11:58:57Z</time></trkpt><trkpt lat="39.137815" lon="-6.790762"><ele>318.4</ele><time>2015-01-01T11:59:37Z</time></trkpt><trkpt lat="39.137981" lon="-6.789883"><ele>320.9</ele><time>2015-01-01T12:00:18Z</time></trkpt><trkpt lat="39.138101" lon="-6.789359"><ele>321.9</ele><time>2015-01-01T12:00:58Z</time></trkpt><trkpt lat="39.138360" lon="-6.788650"><ele>320.1</ele><time>2015-01-01T12:01:38Z</time></trkpt><trkpt lat="39.138620" lon="-6.788320"><ele>317.9</ele><time>2015-01-01T12:02:18Z</time></trkpt><trkpt lat="39.139000" lon="-6.787930"><ele>315.0</ele><time>2015-01-01T12:02:58Z</time></trkpt><trkpt lat="39.139400" lon="-6.787770"><ele>313.0</ele><time>2015-01-01T12:03:38Z</time></trkpt><trkpt lat="39.139740" lon="-6.787720"><ele>314.1</ele><time>2015-01-01T12:04:18Z</time></trkpt><trkpt lat="39.139990" lon="-6.787650"><ele>315.0</ele><time>2015-01-01T12:04:58Z</time></trkpt><trkpt lat="39.140360" lon="-6.787560"><ele>315.4</ele><time>2015-01-01T12:05:38Z</time></trkpt><trkpt lat="39.140780" lon="-6.787490"><ele>317.7</ele><time>2015-01-01T12:06:18Z</time></trkpt><trkpt lat="39.141160" lon="-6.787370"><ele>323.7</ele><time>2015-01-01T12:06:59Z</time></trkpt><trkpt lat="39.141540" lon="-6.787120"><ele>324.5</ele><time>2015-01-01T12:07:39Z</time></trkpt><trkpt lat="39.141790" lon="-6.786760"><ele>323.9</ele><time>2015-01-01T12:08:19Z</time></trkpt><trkpt lat="39.142020" lon="-6.786270"><ele>324.5</ele><time>2015-01-01T12:08:59Z</time></trkpt><trkpt lat="39.142010" lon="-6.785670"><ele>325.3</ele><time>2015-01-01T12:09:39Z</time></trkpt><trkpt lat="39.141800" lon="-6.785150"><ele>322.3</ele><time>2015-01-01T12:10:19Z</time></trkpt><trkpt lat="39.141480" lon="-6.784640"><ele>320.7</ele><time>2015-01-01T12:10:59Z</time></trkpt><trkpt lat="39.141240" lon="-6.784110"><ele>315.8</ele><time>2015-01-01T12:11:39Z</time></trkpt><trkpt lat="39.141120" lon="-6.783560"><ele>314.2</ele><time>2015-01-01T12:12:19Z</time></trkpt><trkpt lat="39.140990" lon="-6.783040"><ele>314.1</ele><time>2015-01-01T12:12:59Z</time></trkpt><trkpt lat="39.140870" lon="-6.782470"><ele>313.4</ele><time>2015-01-01T12:13:40Z</time></trkpt><trkpt lat="39.140770" lon="-6.781930"><ele>315.6</ele><time>2015-01-01T12:14:20Z</time></trkpt><trkpt lat="39.140740" lon="-6.781340"><ele>321.3</ele><time>2015-01-01T12:15:00Z</time></trkpt><trkpt lat="39.140650" lon="-6.780880"><ele>325.6</ele><time>2015-01-01T12:15:40Z</time></trkpt><trkpt lat="39.140560" lon="-6.780380"><ele>325.4</ele><time>2015-01-01T12:16:20Z</time></trkpt><trkpt lat="39.140360" lon="-6.779770"><ele>321.6</ele><time>2015-01-01T12:17:00Z</time></trkpt><trkpt lat="39.140230" lon="-6.779330"><ele>320.1</ele><time>2015-01-01T12:17:40Z</time></trkpt><trkpt lat="39.140040" lon="-6.778680"><ele>318.5</ele><time>2015-01-01T12:18:20Z</time></trkpt><trkpt lat="39.139810" lon="-6.778070"><ele>317.8</ele><time>2015-01-01T12:19:00Z</time></trkpt><trkpt lat="39.139600" lon="-6.777480"><ele>314.1</ele><time>2015-01-01T12:19:40Z</time></trkpt><trkpt lat="39.139600" lon="-6.777480"><ele>314.1</ele><time>2015-01-01T12:20:21Z</time></trkpt><trkpt lat="39.139810" lon="-6.778070"><ele>317.8</ele><time>2015-01-01T12:21:01Z</time></trkpt><trkpt lat="39.140040" lon="-6.778680"><ele>318.5</ele><time>2015-01-01T12:21:41Z</time></trkpt><trkpt lat="39.140230" lon="-6.779330"><ele>320.1</ele><time>2015-01-01T12:22:21Z</time></trkpt><trkpt lat="39.140360" lon="-6.779770"><ele>321.6</ele><time>2015-01-01T12:23:01Z</time></trkpt><trkpt lat="39.140560" lon="-6.780380"><ele>325.4</ele><time>2015-01-01T12:23:41Z</time></trkpt><trkpt lat="39.140650" lon="-6.780880"><ele>325.6</ele><time>2015-01-01T12:24:21Z</time></trkpt><trkpt lat="39.140740" lon="-6.781340"><ele>321.3</ele><time>2015-01-01T12:25:01Z</time></trkpt><trkpt lat="39.140770" lon="-6.781930"><ele>315.6</ele><time>2015-01-01T12:25:41Z</time></trkpt><trkpt lat="39.140870" lon="-6.782470"><ele>313.4</ele><time>2015-01-01T12:26:21Z</time></trkpt><trkpt lat="39.140990" lon="-6.783040"><ele>314.1</ele><time>2015-01-01T12:27:02Z</time></trkpt><trkpt lat="39.141120" lon="-6.783560"><ele>314.2</ele><time>2015-01-01T12:27:42Z</time></trkpt><trkpt lat="39.141240" lon="-6.784110"><ele>315.8</ele><time>2015-01-01T12:28:22Z</time></trkpt><trkpt lat="39.141480" lon="-6.784640"><ele>320.7</ele><time>2015-01-01T12:29:02Z</time></trkpt><trkpt lat="39.141800" lon="-6.785150"><ele>322.3</ele><time>2015-01-01T12:29:42Z</time></trkpt><trkpt lat="39.142010" lon="-6.785670"><ele>325.3</ele><time>2015-01-01T12:30:22Z</time></trkpt><trkpt lat="39.142020" lon="-6.786270"><ele>324.5</ele><time>2015-01-01T12:31:02Z</time></trkpt><trkpt lat="39.141790" lon="-6.786760"><ele>323.9</ele><time>2015-01-01T12:31:42Z</time></trkpt><trkpt lat="39.141540" lon="-6.787120"><ele>324.5</ele><time>2015-01-01T12:32:22Z</time></trkpt><trkpt lat="39.141160" lon="-6.787370"><ele>323.7</ele><time>2015-01-01T12:33:02Z</time></trkpt><trkpt lat="39.140780" lon="-6.787490"><ele>317.7</ele><time>2015-01-01T12:33:43Z</time></trkpt><trkpt lat="39.140360" lon="-6.787560"><ele>315.4</ele><time>2015-01-01T12:34:23Z</time></trkpt><trkpt lat="39.139990" lon="-6.787650"><ele>315.0</ele><time>2015-01-01T12:35:03Z</time></trkpt><trkpt lat="39.139740" lon="-6.787720"><ele>314.1</ele><time>2015-01-01T12:35:43Z</time></trkpt><trkpt lat="39.139400" lon="-6.787770"><ele>313.0</ele><time>2015-01-01T12:36:23Z</time></trkpt><trkpt lat="39.139000" lon="-6.787930"><ele>315.0</ele><time>2015-01-01T12:37:03Z</time></trkpt><trkpt lat="39.138620" lon="-6.788320"><ele>317.9</ele><time>2015-01-01T12:37:43Z</time></trkpt><trkpt lat="39.138360" lon="-6.788650"><ele>320.1</ele><time>2015-01-01T12:38:23Z</time></trkpt><trkpt lat="39.138101" lon="-6.789359"><ele>321.9</ele><time>2015-01-01T12:39:03Z</time></trkpt><trkpt lat="39.137981" lon="-6.789883"><ele>320.9</ele><time>2015-01-01T12:39:43Z</time></trkpt><trkpt lat="39.137815" lon="-6.790762"><ele>318.4</ele><time>2015-01-01T12:40:24Z</time></trkpt><trkpt lat="39.137805" lon="-6.791202"><ele>318.1</ele><time>2015-01-01T12:41:04Z</time></trkpt><trkpt lat="39.137880" lon="-6.791720"><ele>317.9</ele><time>2015-01-01T12:41:44Z</time></trkpt><trkpt lat="39.138010" lon="-6.792280"><ele>316.6</ele><time>2015-01-01T12:42:24Z</time></trkpt><trkpt lat="39.138062" lon="-6.792773"><ele>315.1</ele><time>2015-01-01T12:43:04Z</time></trkpt><trkpt lat="39.138160" lon="-6.793520"><ele>315.2</ele><time>2015-01-01T12:43:44Z</time></trkpt><trkpt lat="39.138215" lon="-6.793916"><ele>314.6</ele><time>2015-01-01T12:44:24Z</time></trkpt><trkpt lat="39.138359" lon="-6.794389"><ele>314.3</ele><time>2015-01-01T12:45:04Z</time></trkpt><trkpt lat="39.138450" lon="-6.794681"><ele>314.9</ele><time>2015-01-01T12:45:44Z</time></trkpt><trkpt lat="39.138525" lon="-6.794971"><ele>316.3</ele><time>2015-01-01T12:46:24Z</time></trkpt><trkpt lat="39.138549" lon="-6.795152"><ele>316.4</ele><time>2015-01-01T12:47:05Z</time></trkpt><trkpt lat="39.138595" lon="-6.796279"><ele>318.7</ele><time>2015-01-01T12:47:45Z</time></trkpt><trkpt lat="39.138676" lon="-6.796739"><ele>321.1</ele><time>2015-01-01T12:48:25Z</time></trkpt><trkpt lat="39.138748" lon="-6.797327"><ele>323.0</ele><time>2015-01-01T12:49:05Z</time></trkpt><trkpt lat="39.138878" lon="-6.797768"><ele>322.1</ele><time>2015-01-01T12:49:45Z</time></trkpt><trkpt lat="39.139101" lon="-6.798380"><ele>325.0</ele><time>2015-01-01T12:50:25Z</time></trkpt><trkpt lat="39.139195" lon="-6.798837"><ele>326.7</ele><time>2015-01-01T12:51:05Z</time></trkpt><trkpt lat="39.139311" lon="-6.799458"><ele>328.5</ele><time>2015-01-01T12:51:45Z</time></trkpt><trkpt lat="39.139421" lon="-6.800042"><ele>329.4</ele><time>2015-01-01T12:52:25Z</time></trkpt><trkpt lat="39.139653" lon="-6.800787"><ele>333.1</ele><time>2015-01-01T12:53:05Z</time></trkpt><trkpt lat="39.139664" lon="-6.801354"><ele>337.0</ele><time>2015-01-01T12:53:46Z</time></trkpt><trkpt lat="39.139632" lon="-6.802037"><ele>338.9</ele><time>2015-01-01T12:54:26Z</time></trkpt><trkpt lat="39.139606" lon="-6.802561"><ele>337.7</ele><time>2015-01-01T12:55:06Z</time></trkpt><trkpt lat="39.139592" lon="-6.803256"><ele>333.8</ele><time>2015-01-01T12:55:46Z</time></trkpt><trkpt lat="39.139535" lon="-6.803700"><ele>330.5</ele><time>2015-01-01T12:56:26Z</time></trkpt><trkpt lat="39.139462" lon="-6.804116"><ele>328.5</ele><time>2015-01-01T12:57:06Z</time></trkpt><trkpt lat="39.139349" lon="-6.804597"><ele>323.1</ele><time>2015-01-01T12:57:46Z</time></trkpt><trkpt lat="39.139220" lon="-6.804922"><ele>322.7</ele><time>2015-01-01T12:58:26Z</time></trkpt><trkpt lat="39.138990" lon="-6.805403"><ele>320.4</ele><time>2015-01-01T12:59:06Z</time></trkpt><trkpt lat="39.138704" lon="-6.805976"><ele>319.0</ele><time>2015-01-01T12:59:46Z</time></trkpt><trkpt lat="39.138370" lon="-6.806370"><ele>318.1</ele><time>2015-01-01T13:00:27Z</time></trkpt><trkpt lat="39.138109" lon="-6.806660"><ele>317.9</ele><time>2015-01-01T13:01:07Z</time></trkpt><trkpt lat="39.137731" lon="-6.806970"><ele>317.5</ele><time>2015-01-01T13:01:47Z</time></trkpt><trkpt lat="39.137457" lon="-6.807247"><ele>318.1</ele><time>2015-01-01T13:02:27Z</time></trkpt><trkpt lat="39.137300" lon="-6.807524"><ele>317.2</ele><time>2015-01-01T13:03:07Z</time></trkpt><trkpt lat="39.137140" lon="-6.807841"><ele>314.2</ele><time>2015-01-01T13:03:47Z</time></trkpt><trkpt lat="39.136943" lon="-6.808139"><ele>311.7</ele><time>2015-01-01T13:04:27Z</time></trkpt><trkpt lat="39.136741" lon="-6.808342"><ele>309.5</ele><time>2015-01-01T13:05:07Z</time></trkpt><trkpt lat="39.136502" lon="-6.808451"><ele>307.2</ele><time>2015-01-01T13:05:47Z</time></trkpt><trkpt lat="39.136186" lon="-6.808524"><ele>305.7</ele><time>2015-01-01T13:06:27Z</time></trkpt><trkpt lat="39.135806" lon="-6.808559"><ele>307.4</ele><time>2015-01-01T13:07:08Z</time></trkpt><trkpt lat="39.135046" lon="-6.808626"><ele>305.0</ele><time>2015-01-01T13:07:48Z</time></trkpt><trkpt lat="39.134738" lon="-6.808755"><ele>301.6</ele><time>2015-01-01T13:08:28Z</time></trkpt><trkpt lat="39.134358" lon="-6.808922"><ele>302.0</ele><time>2015-01-01T13:09:08Z</time></trkpt><trkpt lat="39.133779" lon="-6.809293"><ele>297.8</ele><time>2015-01-01T13:09:48Z</time></trkpt><trkpt lat="39.133619" lon="-6.809492"><ele>297.1</ele><time>2015-01-01T13:10:28Z</time></trkpt><trkpt lat="39.133526" lon="-6.809851"><ele>298.9</ele><time>2015-01-01T13:11:08Z</time></trkpt><trkpt lat="39.133436" lon="-6.810319"><ele>297.9</ele><time>2015-01-01T13:11:48Z</time></trkpt><trkpt lat="39.133356" lon="-6.810752"><ele>295.2</ele><time>2015-01-01T13:12:28Z</time></trkpt><trkpt lat="39.133301" lon="-6.811168"><ele>292.9</ele><time>2015-01-01T13:13:08Z</time></trkpt><trkpt lat="39.133190" lon="-6.811504"><ele>291.5</ele><time>2015-01-01T13:13:49Z</time></trkpt><trkpt lat="39.132950" lon="-6.811840"><ele>292.0</ele><time>2015-01-01T13:14:29Z</time></trkpt><trkpt lat="39.132732" lon="-6.812064"><ele>292.6</ele><time>2015-01-01T13:15:09Z</time></trkpt><trkpt lat="39.132342" lon="-6.812392"><ele>291.5</ele><time>2015-01-01T13:15:49Z</time></trkpt><trkpt lat="39.132297" lon="-6.812382"><ele>291.0</ele><time>2015-01-01T13:16:29Z</time></trkpt><trkpt lat="39.132180" lon="-6.812340"><ele>289.6</ele><time>2015-01-01T13:17:09Z</time></trkpt><trkpt lat="39.131960" lon="-6.812320"><ele>288.1</ele><time>2015-01-01T13:17:49Z</time></trkpt><trkpt lat="39.131665" lon="-6.812326"><ele>287.4</ele><time>2015-01-01T13:18:29Z</time></trkpt><trkpt lat="39.131470" lon="-6.812310"><ele>287.3</ele><time>2015-01-01T13:19:09Z</time></trkpt><trkpt lat="39.131040" lon="-6.812300"><ele>287.7</ele><time>2015-01-01T13:19:49Z</time></trkpt><trkpt lat="39.130602" lon="-6.812336"><ele>286.2</ele><time>2015-01-01T13:20:30Z</time></trkpt><trkpt lat="39.130210" lon="-6.812325"><ele>284.9</ele><time>2015-01-01T13:21:10Z</time></trkpt><trkpt lat="39.129869" lon="-6.812312"><ele>284.2</ele><time>2015-01-01T13:21:50Z</time></trkpt><trkpt lat="39.129482" lon="-6.812341"><ele>283.4</ele><time>2015-01-01T13:22:30Z</time></trkpt><trkpt lat="39.129105" lon="-6.812388"><ele>282.5</ele><time>2015-01-01T13:23:10Z</time></trkpt><trkpt lat="39.128752" lon="-6.812442"><ele>280.8</ele><time>2015-01-01T13:23:50Z</time></trkpt><trkpt lat="39.128316" lon="-6.812502"><ele>281.9</ele><time>2015-01-01T13:24:30Z</time></trkpt><trkpt lat="39.128000" lon="-6.812558"><ele>280.4</ele><time>2015-01-01T13:25:10Z</time></trkpt><trkpt lat="39.127658" lon="-6.812603"><ele>277.7</ele><time>2015-01-01T13:25:50Z</time></trkpt><trkpt lat="39.127397" lon="-6.812611"><ele>276.7</ele><time>2015-01-01T13:26:30Z</time></trkpt><trkpt lat="39.127240" lon="-6.812650"><ele>276.6</ele><time>2015-01-01T13:27:11Z</time></trkpt><trkpt lat="39.127090" lon="-6.812667"><ele>276.6</ele><time>2015-01-01T13:27:51Z</time></trkpt><trkpt lat="39.127010" lon="-6.812610"><ele>276.4</ele><time>2015-01-01T13:28:31Z</time></trkpt><trkpt lat="39.126995" lon="-6.812161"><ele>276.2</ele><time>2015-01-01T13:29:11Z</time></trkpt><trkpt lat="39.126982" lon="-6.811710"><ele>276.9</ele><time>2015-01-01T13:29:51Z</time></trkpt><trkpt lat="39.126953" lon="-6.811165"><ele>277.0</ele><time>2015-01-01T13:30:31Z</time></trkpt><trkpt lat="39.126938" lon="-6.810601"><ele>278.0</ele><time>2015-01-01T13:31:11Z</time></trkpt><trkpt lat="39.126906" lon="-6.809827"><ele>281.7</ele><time>2015-01-01T13:31:51Z</time></trkpt><trkpt lat="39.126570" lon="-6.809830"><ele>279.2</ele><time>2015-01-01T13:32:31Z</time></trkpt><trkpt lat="39.126284" lon="-6.809855"><ele>277.1</ele><time>2015-01-01T13:33:11Z</time></trkpt><trkpt lat="39.125811" lon="-6.809858"><ele>277.6</ele><time>2015-01-01T13:33:52Z</time></trkpt><trkpt lat="39.125352" lon="-6.809867"><ele>277.2</ele><time>2015-01-01T13:34:32Z</time></trkpt><trkpt lat="39.124861" lon="-6.809882"><ele>275.0</ele><time>2015-01-01T13:35:12Z</time></trkpt><trkpt lat="39.124391" lon="-6.809885"><ele>275.2</ele><time>2015-01-01T13:35:52Z</time></trkpt><trkpt lat="39.123947" lon="-6.809881"><ele>271.2</ele><time>2015-01-01T13:36:32Z</time></trkpt><trkpt lat="39.123490" lon="-6.809880"><ele>270.4</ele><time>2015-01-01T13:37:12Z</time></trkpt><trkpt lat="39.123050" lon="-6.809877"><ele>270.9</ele><time>2015-01-01T13:37:52Z</time></trkpt><trkpt lat="39.122658" lon="-6.809875"><ele>267.6</ele><time>2015-01-01T13:38:32Z</time></trkpt><trkpt lat="39.122180" lon="-6.809858"><ele>267.7</ele><time>2015-01-01T13:39:12Z</time></trkpt><trkpt lat="39.121786" lon="-6.809862"><ele>268.4</ele><time>2015-01-01T13:39:52Z</time></trkpt><trkpt lat="39.121397" lon="-6.809862"><ele>267.5</ele><time>2015-01-01T13:40:33Z</time></trkpt><trkpt lat="39.120905" lon="-6.809854"><ele>267.9</ele><time>2015-01-01T13:41:13Z</time></trkpt><trkpt lat="39.120345" lon="-6.809854"><ele>270.8</ele><time>2015-01-01T13:41:53Z</time></trkpt><trkpt lat="39.119901" lon="-6.809848"><ele>270.1</ele><time>2015-01-01T13:42:33Z</time></trkpt><trkpt lat="39.119414" lon="-6.809851"><ele>268.0</ele><time>2015-01-01T13:43:13Z</time></trkpt><trkpt lat="39.119072" lon="-6.809847"><ele>268.2</ele><time>2015-01-01T13:43:53Z</time></trkpt><trkpt lat="39.118671" lon="-6.809842"><ele>269.2</ele><time>2015-01-01T13:44:33Z</time></trkpt><trkpt lat="39.118330" lon="-6.809880"><ele>270.0</ele><time>2015-01-01T13:45:13Z</time></trkpt><trkpt lat="39.117930" lon="-6.809930"><ele>270.5</ele><time>2015-01-01T13:45:53Z</time></trkpt><trkpt lat="39.117640" lon="-6.810010"><ele>271.0</ele><time>2015-01-01T13:46:33Z</time></trkpt><trkpt lat="39.117322" lon="-6.809977"><ele>271.0</ele><time>2015-01-01T13:47:14Z</time></trkpt><trkpt lat="39.116950" lon="-6.809997"><ele>272.9</ele><time>2015-01-01T13:47:54Z</time></trkpt><trkpt lat="39.116528" lon="-6.810030"><ele>273.2</ele><time>2015-01-01T13:48:34Z</time></trkpt><trkpt lat="39.116273" lon="-6.810032"><ele>272.7</ele><time>2015-01-01T13:49:14Z</time></trkpt><trkpt lat="39.116030" lon="-6.809870"><ele>270.5</ele><time>2015-01-01T13:49:54Z</time></trkpt><trkpt lat="39.115760" lon="-6.809770"><ele>267.5</ele><time>2015-01-01T13:50:34Z</time></trkpt><trkpt lat="39.115469" lon="-6.809650"><ele>266.1</ele><time>2015-01-01T13:51:14Z</time></trkpt><trkpt lat="39.115219" lon="-6.809796"><ele>266.6</ele><time>2015-01-01T13:51:54Z</time></trkpt><trkpt lat="39.115043" lon="-6.810253"><ele>268.8</ele><time>2015-01-01T13:52:34Z</time></trkpt><trkpt lat="39.114879" lon="-6.810396"><ele>267.7</ele><time>2015-01-01T13:53:14Z</time></trkpt><trkpt lat="39.114685" lon="-6.810402"><ele>266.3</ele><time>2015-01-01T13:53:55Z</time></trkpt><trkpt lat="39.114482" lon="-6.810504"><ele>264.5</ele><time>2015-01-01T13:54:35Z</time></trkpt><trkpt lat="39.114235" lon="-6.810627"><ele>264.3</ele><time>2015-01-01T13:55:15Z</time></trkpt><trkpt lat="39.113989" lon="-6.810748"><ele>264.9</ele><time>2015-01-01T13:55:55Z</time></trkpt><trkpt lat="39.113661" lon="-6.810917"><ele>265.1</ele><time>2015-01-01T13:56:35Z</time></trkpt><trkpt lat="39.113311" lon="-6.811095"><ele>263.7</ele><time>2015-01-01T13:57:15Z</time></trkpt><trkpt lat="39.112940" lon="-6.811254"><ele>259.9</ele><time>2015-01-01T13:57:55Z</time></trkpt><trkpt lat="39.112950" lon="-6.811620"><ele>261.6</ele><time>2015-01-01T13:58:35Z</time></trkpt><trkpt lat="39.112980" lon="-6.812130"><ele>262.2</ele><time>2015-01-01T13:59:15Z</time></trkpt><trkpt lat="39.113000" lon="-6.812400"><ele>261.3</ele><time>2015-01-01T13:59:55Z</time></trkpt><trkpt lat="39.113032" lon="-6.812790"><ele>261.1</ele><time>2015-01-01T14:00:36Z</time></trkpt><trkpt lat="39.112975" lon="-6.813219"><ele>261.8</ele><time>2015-01-01T14:01:16Z</time></trkpt><trkpt lat="39.113082" lon="-6.813679"><ele>260.5</ele><time>2015-01-01T14:01:56Z</time></trkpt><trkpt lat="39.113092" lon="-6.814092"><ele>257.6</ele><time>2015-01-01T14:02:36Z</time></trkpt><trkpt lat="39.113183" lon="-6.814705"><ele>257.0</ele><time>2015-01-01T14:03:16Z</time></trkpt><trkpt lat="39.113270" lon="-6.815523"><ele>253.9</ele><time>2015-01-01T14:03:56Z</time></trkpt><trkpt lat="39.113392" lon="-6.816135"><ele>252.1</ele><time>2015-01-01T14:04:36Z</time></trkpt><trkpt lat="39.113515" lon="-6.816455"><ele>253.7</ele><time>2015-01-01T14:05:16Z</time></trkpt><trkpt lat="39.113657" lon="-6.816815"><ele>254.2</ele><time>2015-01-01T14:05:56Z</time></trkpt><trkpt lat="39.113880" lon="-6.817360"><ele>255.4</ele><time>2015-01-01T14:06:36Z</time></trkpt><trkpt lat="39.114080" lon="-6.817850"><ele>256.4</ele><time>2015-01-01T14:07:17Z</time></trkpt><trkpt lat="39.114490" lon="-6.818620"><ele>257.1</ele><time>2015-01-01T14:07:57Z</time></trkpt><trkpt lat="39.114710" lon="-6.818948"><ele>254.0</ele><time>2015-01-01T14:08:37Z</time></trkpt><trkpt lat="39.114710" lon="-6.819142"><ele>254.0</ele><time>2015-01-01T14:09:17Z</time></trkpt><trkpt lat="39.114561" lon="-6.819361"><ele>253.1</ele><time>2015-01-01T14:09:57Z</time></trkpt><trkpt lat="39.114514" lon="-6.819547"><ele>252.7</ele><time>2015-01-01T14:10:37Z</time></trkpt><trkpt lat="39.114511" lon="-6.819825"><ele>252.5</ele><time>2015-01-01T14:11:17Z</time></trkpt><trkpt lat="39.114568" lon="-6.820378"><ele>256.4</ele><time>2015-01-01T14:11:57Z</time></trkpt><trkpt lat="39.114554" lon="-6.820572"><ele>259.1</ele><time>2015-01-01T14:12:37Z</time></trkpt><trkpt lat="39.114490" lon="-6.821022"><ele>258.2</ele><time>2015-01-01T14:13:17Z</time></trkpt><trkpt lat="39.114508" lon="-6.821392"><ele>253.7</ele><time>2015-01-01T14:13:58Z</time></trkpt><trkpt lat="39.114461" lon="-6.821879"><ele>254.6</ele><time>2015-01-01T14:14:38Z</time></trkpt><trkpt lat="39.114413" lon="-6.822335"><ele>257.2</ele><time>2015-01-01T14:15:18Z</time></trkpt><trkpt lat="39.114324" lon="-6.822866"><ele>257.8</ele><time>2015-01-01T14:15:58Z</time></trkpt><trkpt lat="39.114194" lon="-6.823350"><ele>257.8</ele><time>2015-01-01T14:16:38Z</time></trkpt><trkpt lat="39.113984" lon="-6.823952"><ele>253.9</ele><time>2015-01-01T14:17:18Z</time></trkpt><trkpt lat="39.113800" lon="-6.824236"><ele>253.8</ele><time>2015-01-01T14:17:58Z</time></trkpt><trkpt lat="39.113740" lon="-6.824411"><ele>254.2</ele><time>2015-01-01T14:18:38Z</time></trkpt><trkpt lat="39.113942" lon="-6.824573"><ele>256.3</ele><time>2015-01-01T14:19:18Z</time></trkpt><trkpt lat="39.114100" lon="-6.824760"><ele>257.4</ele><time>2015-01-01T14:19:58Z</time></trkpt><trkpt lat="39.114292" lon="-6.824995"><ele>256.1</ele><time>2015-01-01T14:20:39Z</time></trkpt><trkpt lat="39.114430" lon="-6.825160"><ele>255.1</ele><time>2015-01-01T14:21:19Z</time></trkpt><trkpt lat="39.114655" lon="-6.825392"><ele>254.6</ele><time>2015-01-01T14:21:59Z</time></trkpt><trkpt lat="39.114945" lon="-6.825710"><ele>258.4</ele><time>2015-01-01T14:22:39Z</time></trkpt><trkpt lat="39.115086" lon="-6.826023"><ele>260.6</ele><time>2015-01-01T14:23:19Z</time></trkpt><trkpt lat="39.115229" lon="-6.826181"><ele>260.9</ele><time>2015-01-01T14:23:59Z</time></trkpt><trkpt lat="39.115677" lon="-6.826320"><ele>258.8</ele><time>2015-01-01T14:24:39Z</time></trkpt><trkpt lat="39.116005" lon="-6.826391"><ele>258.0</ele><time>2015-01-01T14:25:19Z</time></trkpt><trkpt lat="39.116200" lon="-6.826520"><ele>257.8</ele><time>2015-01-01T14:25:59Z</time></trkpt><trkpt lat="39.116620" lon="-6.826770"><ele>258.0</ele><time>2015-01-01T14:26:39Z</time></trkpt><trkpt lat="39.117026" lon="-6.827028"><ele>261.1</ele><time>2015-01-01T14:27:20Z</time></trkpt><trkpt lat="39.117341" lon="-6.827151"><ele>262.0</ele><time>2015-01-01T14:28:00Z</time></trkpt><trkpt lat="39.117563" lon="-6.827434"><ele>260.8</ele><time>2015-01-01T14:28:40Z</time></trkpt><trkpt lat="39.117857" lon="-6.827618"><ele>260.7</ele><time>2015-01-01T14:29:20Z</time></trkpt><trkpt lat="39.118200" lon="-6.828060"><ele>263.0</ele><time>2015-01-01T14:30:00Z</time></trkpt><trkpt lat="39.118380" lon="-6.828260"><ele>264.9</ele><time>2015-01-01T14:30:40Z</time></trkpt><trkpt lat="39.118380" lon="-6.828260"><ele>264.9</ele><time>2015-01-01T14:31:20Z</time></trkpt><trkpt lat="39.118810" lon="-6.828560"><ele>263.3</ele><time>2015-01-01T14:32:00Z</time></trkpt><trkpt lat="39.119081" lon="-6.828529"><ele>263.0</ele><time>2015-01-01T14:32:40Z</time></trkpt><trkpt lat="39.119300" lon="-6.828311"><ele>263.6</ele><time>2015-01-01T14:33:20Z</time></trkpt><trkpt lat="39.119777" lon="-6.828048"><ele>264.2</ele><time>2015-01-01T14:34:01Z</time></trkpt><trkpt lat="39.120323" lon="-6.827933"><ele>268.2</ele><time>2015-01-01T14:34:41Z</time></trkpt><trkpt lat="39.120560" lon="-6.827930"><ele>271.6</ele><time>2015-01-01T14:35:21Z</time></trkpt><trkpt lat="39.120890" lon="-6.828150"><ele>274.0</ele><time>2015-01-01T14:36:01Z</time></trkpt><trkpt lat="39.121049" lon="-6.828344"><ele>274.0</ele><time>2015-01-01T14:36:41Z</time></trkpt><trkpt lat="39.121160" lon="-6.828560"><ele>274.8</ele><time>2015-01-01T14:37:21Z</time></trkpt><trkpt lat="39.121330" lon="-6.828970"><ele>276.0</ele><time>2015-01-01T14:38:01Z</time></trkpt><trkpt lat="39.121492" lon="-6.829163"><ele>277.4</ele><time>2015-01-01T14:38:41Z</time></trkpt><trkpt lat="39.121646" lon="-6.829350"><ele>278.0</ele><time>2015-01-01T14:39:21Z</time></trkpt><trkpt lat="39.121760" lon="-6.829450"><ele>277.7</ele><time>2015-01-01T14:40:01Z</time></trkpt><trkpt lat="39.121910" lon="-6.829490"><ele>277.3</ele><time>2015-01-01T14:40:42Z</time></trkpt><trkpt lat="39.122358" lon="-6.829328"><ele>276.2</ele><time>2015-01-01T14:41:22Z</time></trkpt><trkpt lat="39.122530" lon="-6.829390"><ele>276.2</ele><time>2015-01-01T14:42:02Z</time></trkpt><trkpt lat="39.122880" lon="-6.829680"><ele>278.7</ele><time>2015-01-01T14:42:42Z</time></trkpt><trkpt lat="39.123200" lon="-6.829930"><ele>281.0</ele><time>2015-01-01T14:43:22Z</time></trkpt><trkpt lat="39.123490" lon="-6.830150"><ele>282.1</ele><time>2015-01-01T14:44:02Z</time></trkpt><trkpt lat="39.123820" lon="-6.830390"><ele>285.1</ele><time>2015-01-01T14:44:42Z</time></trkpt><trkpt lat="39.124150" lon="-6.830680"><ele>286.4</ele><time>2015-01-01T14:45:22Z</time></trkpt><trkpt lat="39.124340" lon="-6.830840"><ele>287.6</ele><time>2015-01-01T14:46:02Z</time></trkpt><trkpt lat="39.124575" lon="-6.830931"><ele>288.1</ele><time>2015-01-01T14:46:42Z</time></trkpt><trkpt lat="39.124690" lon="-6.831087"><ele>288.0</ele><time>2015-01-01T14:47:23Z</time></trkpt><trkpt lat="39.124831" lon="-6.831369"><ele>287.0</ele><time>2015-01-01T14:48:03Z</time></trkpt><trkpt lat="39.125033" lon="-6.831698"><ele>287.1</ele><time>2015-01-01T14:48:43Z</time></trkpt><trkpt lat="39.125470" lon="-6.832060"><ele>283.5</ele><time>2015-01-01T14:49:23Z</time></trkpt><trkpt lat="39.125910" lon="-6.832570"><ele>282.7</ele><time>2015-01-01T14:50:03Z</time></trkpt><trkpt lat="39.126220" lon="-6.832990"><ele>278.7</ele><time>2015-01-01T14:50:43Z</time></trkpt><trkpt lat="39.126470" lon="-6.833410"><ele>275.4</ele><time>2015-01-01T14:51:23Z</time></trkpt><trkpt lat="39.126660" lon="-6.833610"><ele>274.0</ele><time>2015-01-01T14:52:03Z</time></trkpt><trkpt lat="39.126937" lon="-6.833901"><ele>273.1</ele><time>2015-01-01T14:52:43Z</time></trkpt><trkpt lat="39.127220" lon="-6.834190"><ele>273.1</ele><time>2015-01-01T14:53:23Z</time></trkpt><trkpt lat="39.127590" lon="-6.834550"><ele>271.4</ele><time>2015-01-01T14:54:04Z</time></trkpt><trkpt lat="39.127941" lon="-6.834842"><ele>269.0</ele><time>2015-01-01T14:54:44Z</time></trkpt><trkpt lat="39.128290" lon="-6.835010"><ele>268.0</ele><time>2015-01-01T14:55:24Z</time></trkpt><trkpt lat="39.128733" lon="-6.835280"><ele>264.7</ele><time>2015-01-01T14:56:04Z</time></trkpt><trkpt lat="39.129202" lon="-6.835578"><ele>260.4</ele><time>2015-01-01T14:56:44Z</time></trkpt><trkpt lat="39.129318" lon="-6.835719"><ele>262.0</ele><time>2015-01-01T14:57:24Z</time></trkpt><trkpt lat="39.129560" lon="-6.836240"><ele>261.9</ele><time>2015-01-01T14:58:04Z</time></trkpt><trkpt lat="39.129740" lon="-6.836660"><ele>258.0</ele><time>2015-01-01T14:58:44Z</time></trkpt><trkpt lat="39.129890" lon="-6.837190"><ele>256.8</ele><time>2015-01-01T14:59:24Z</time></trkpt><trkpt lat="39.130000" lon="-6.837630"><ele>257.5</ele><time>2015-01-01T15:00:04Z</time></trkpt><trkpt lat="39.130010" lon="-6.838330"><ele>259.1</ele><time>2015-01-01T15:00:45Z</time></trkpt><trkpt lat="39.130065" lon="-6.838718"><ele>258.9</ele><time>2015-01-01T15:01:25Z</time></trkpt><trkpt lat="39.130114" lon="-6.839087"><ele>257.8</ele><time>2015-01-01T15:02:05Z</time></trkpt><trkpt lat="39.130170" lon="-6.839440"><ele>256.6</ele><time>2015-01-01T15:02:45Z</time></trkpt><trkpt lat="39.130250" lon="-6.840050"><ele>254.9</ele><time>2015-01-01T15:03:25Z</time></trkpt><trkpt lat="39.130300" lon="-6.840570"><ele>255.1</ele><time>2015-01-01T15:04:05Z</time></trkpt><trkpt lat="39.130356" lon="-6.841197"><ele>253.8</ele><time>2015-01-01T15:04:45Z</time></trkpt><trkpt lat="39.130627" lon="-6.841237"><ele>255.8</ele><time>2015-01-01T15:05:25Z</time></trkpt><trkpt lat="39.130580" lon="-6.841610"><ele>255.0</ele><time>2015-01-01T15:06:05Z</time></trkpt><trkpt lat="39.130550" lon="-6.842040"><ele>255.0</ele><time>2015-01-01T15:06:45Z</time></trkpt><trkpt lat="39.130539" lon="-6.842536"><ele>254.8</ele><time>2015-01-01T15:07:26Z</time></trkpt><trkpt lat="39.130680" lon="-6.843190"><ele>252.1</ele><time>2015-01-01T15:08:06Z</time></trkpt><trkpt lat="39.130810" lon="-6.843800"><ele>249.9</ele><time>2015-01-01T15:08:46Z</time></trkpt><trkpt lat="39.130930" lon="-6.844310"><ele>249.3</ele><time>2015-01-01T15:09:26Z</time></trkpt><trkpt lat="39.131100" lon="-6.844830"><ele>247.6</ele><time>2015-01-01T15:10:06Z</time></trkpt><trkpt lat="39.131249" lon="-6.845149"><ele>245.2</ele><time>2015-01-01T15:10:46Z</time></trkpt><trkpt lat="39.131334" lon="-6.845346"><ele>244.0</ele><time>2015-01-01T15:11:26Z</time></trkpt><trkpt lat="39.131620" lon="-6.845829"><ele>242.8</ele><time>2015-01-01T15:12:06Z</time></trkpt><trkpt lat="39.131973" lon="-6.846408"><ele>244.3</ele><time>2015-01-01T15:12:46Z</time></trkpt><trkpt lat="39.132498" lon="-6.846155"><ele>246.0</ele><time>2015-01-01T15:13:26Z</time></trkpt><trkpt lat="39.132998" lon="-6.845810"><ele>245.5</ele><time>2015-01-01T15:14:07Z</time></trkpt><trkpt lat="39.132613" lon="-6.844945"><ele>244.5</ele><time>2015-01-01T15:14:47Z</time></trkpt></trkseg></trk></gpx>